Senador Jose Porfirio, Brazil
Current Conditions -  °F | °C
As of 2:00 PM on Monday 24 Nov 2014 (Local Time) from SBHT Reporting Station
Broken Clouds Broken Clouds  
Wind Chill: 90°   Ceiling: 10000
Heat Index: 102°   Visibility: 6mi
Dew Point: 77°   Wind: 5mph
Humidity: 66%   Direction: 110°ESE
Pressure: 29.83"   Gusts: NA
Location:  2.58°S, 51.92°W
Report Text: SBHT 241700Z 11004KT 9999 SCT023 BKN100 32/25 Q1010
Loading
Personal Weather Stations






























Interactive Weather Map New forecast layout! Learn more

10-Day Weather Forecast

Advertisements
Track Severe Weather on mobile